Gnadenhutten, OH (44629)

5:02 AM EDT on May 27, 2017 (GMT -0400)
Riverside Recycle | | Change Station

Elev 600 ft 40.38 °N, 81.40 °W | Updated 13 minutes ago

Rain
Rain
58.1 °F
Feels Like 58.1 °F
N
4.2
Wind Variable Wind from NE

Today
High -- | Low -- °F
--% Chance of Precip.
Yesterday
High -- | Low -- °F
Precip. -- in
Pressure 29.85 in
Visibility 5.0 miles
Clouds Mostly Cloudy 9000 ft
Overcast 11000 ft
Dew Point 58 °F
Humidity 99%
Rainfall 0.04 in
Snow Depth Not available.
6:00 AM 8:46 PM
Waxing Crescent, 4% visible
METAR KPHD 270853Z AUTO 14005KT 5SM -RA BR BKN090 OVC110 14/14 A2986 RMK AO2 LTG DSNT SW-NW SLP108 P0009 60010 T01440139 58017
Pressure 29.85 in
Visibility 5.0 miles
Clouds Mostly Cloudy 9000 ft
Overcast 11000 ft
Dew Point 58 °F
Humidity 99%
Rainfall 0.04 in
Snow Depth Not available.
6:00 AM 8:46 PM
Waxing Crescent, 4% visible
METAR KPHD 270853Z AUTO 14005KT 5SM -RA BR BKN090 OVC110 14/14 A2986 RMK AO2 LTG DSNT SW-NW SLP108 P0009 60010 T01440139 58017

Get Severe Weather Alerts

Thanks for signing up!

Be on the lookout for a verification email in your inbox.

You'll start receiving the daily forecast at 6 AM.

×

10-Day Weather Forecast

Almanac

Astronomy

May. 27, 2017 Rise Set
Actual Time
Civil Twilight
Nautical Twilight
Astronomical Twilight
Moon
Length of Visible Light
Length of Day
Tomorrow will be .
, % of the Moon is Illuminated

Today's Extremes

State Highs State Lows

Community

WunderPhotos

Category 6

Welcome to Category 6. This is the collective home for Weather Underground's featured writeups by Dr. Jeff Masters (right), Bob Henson (left), Chris Burt, and other regular contributors.

Nearby

Air Quality

  Air Quality AQ Index Pollutant
Not available.

Snow Depth

Station Depth Elevation

Earthquake Activity

City Distance Mag. Time & Date
Minimum magnitude displayed is 2.5.

Coastal Water Temperatures

Place Temperature

Stations

Nearby Weather Stations

Station Location Temp. Windchill Dew Point Humidity Wind Precip. Elev Updated Type
                   

Watches & Warnings

There are currently no watches in effect.